createdAt,value
2018-04-26T00:00:13.161Z,9.26
2018-04-26T00:01:13.136Z,9.25
2018-04-26T00:02:13.108Z,9.23
2018-04-26T00:03:13.122Z,9.29
2018-04-26T00:04:12.806Z,9.22
2018-04-26T00:05:12.786Z,9.16
2018-04-26T00:06:13.008Z,9.18
2018-04-26T00:07:12.981Z,9.11
2018-04-26T00:08:12.705Z,9.16
2018-04-26T00:09:12.429Z,9.13
2018-04-26T00:10:12.666Z,9.04
2018-04-26T00:11:12.876Z,9.14
2018-04-26T00:12:12.797Z,9.13
2018-04-26T00:13:12.574Z,9.11
2018-04-26T00:14:12.800Z,9.04
2018-04-26T00:15:12.616Z,9.04
2018-04-26T00:16:12.747Z,9.04
2018-04-26T00:17:12.725Z,9.03
2018-04-26T00:18:12.692Z,9.11
2018-04-26T00:19:12.415Z,9.08
2018-04-26T00:20:12.393Z,9
2018-04-26T00:21:12.611Z,9.03
2018-04-26T00:22:12.585Z,9.14
2018-04-26T00:23:12.312Z,9.14
2018-04-26T00:24:12.534Z,9.16
2018-04-26T00:25:12.505Z,9.18
2018-04-26T00:26:12.474Z,9.18
2018-04-26T00:27:12.208Z,9.16
2018-04-26T00:28:12.434Z,9.18
2018-04-26T00:29:12.155Z,9.13
2018-04-26T00:30:12.383Z,9.04
2018-04-26T00:31:12.350Z,9.16
2018-04-26T00:32:12.077Z,9.16
2018-04-26T00:33:12.049Z,9.03
2018-04-26T00:34:12.271Z,9.08
2018-04-26T00:35:12.252Z,9.1
2018-04-26T00:36:11.977Z,9.06
2018-04-26T00:37:12.191Z,9.08
2018-04-26T00:38:12.173Z,9.04
2018-04-26T00:39:12.140Z,8.97
2018-04-26T00:40:12.113Z,8.97
2018-04-26T00:41:11.842Z,9
2018-04-26T00:42:12.065Z,8.99
2018-04-26T00:43:12.036Z,8.95
2018-04-26T00:44:11.763Z,9.04
2018-04-26T00:45:11.742Z,9.03
2018-04-26T00:46:11.959Z,9.03
2018-04-26T00:47:11.967Z,8.97
2018-04-26T00:48:11.913Z,8.99
2018-04-26T00:49:11.874Z,8.97
2018-04-26T00:50:11.848Z,9.04
2018-04-26T00:51:11.827Z,9.03
2018-04-26T00:52:11.807Z,9
2018-04-26T00:53:11.771Z,8.95
2018-04-26T00:54:11.748Z,9.1
2018-04-26T00:55:11.810Z,9.1
2018-04-26T00:56:11.449Z,9.03
2018-04-26T00:57:11.418Z,9.04
2018-04-26T00:58:11.641Z,9.1
2018-04-26T00:59:11.619Z,9.03
2018-04-26T01:00:11.590Z,9.06
2018-04-26T01:01:11.318Z,9
2018-04-26T01:02:11.538Z,9.08
2018-04-26T01:03:11.510Z,9.1
2018-04-26T01:04:11.483Z,9.1
2018-04-26T01:05:11.459Z,9.03
2018-04-26T01:06:11.184Z,9.02
2018-04-26T01:07:11.412Z,9.02
2018-04-26T01:08:11.379Z,9
2018-04-26T01:09:11.355Z,9.1
2018-04-26T01:10:11.325Z,9.04
2018-04-26T01:11:11.306Z,9.04
2018-04-26T01:12:11.276Z,8.95
2018-04-26T01:13:11.001Z,9.03
2018-04-26T01:14:10.979Z,9.02
2018-04-26T01:15:11.209Z,8.92
2018-04-26T01:16:11.175Z,8.94
2018-04-26T01:17:11.146Z,8.88
2018-04-26T01:18:10.874Z,9
2018-04-26T01:19:10.842Z,8.97
2018-04-26T01:20:11.315Z,9
2018-04-26T01:21:11.045Z,9.02
2018-04-26T01:22:11.017Z,9.02
2018-04-26T01:23:10.739Z,9.08
2018-04-26T01:24:10.463Z,9.16
2018-04-26T01:25:10.939Z,9.19
2018-04-26T01:26:10.914Z,9.06
2018-04-26T01:27:10.645Z,9.1
2018-04-26T01:28:10.620Z,9.18
2018-04-26T01:29:10.826Z,9.16
2018-04-26T01:30:10.806Z,9.19
2018-04-26T01:31:10.776Z,9.16
2018-04-26T01:32:10.747Z,9.18
2018-04-26T01:33:10.474Z,9.16
2018-04-26T01:34:10.449Z,9.18
2018-04-26T01:35:10.679Z,9.13
2018-04-26T01:36:10.646Z,9.23
2018-04-26T01:37:10.621Z,9.22
2018-04-26T01:38:10.347Z,9.19
2018-04-26T01:39:10.321Z,9.19
2018-04-26T01:40:10.543Z,9.18
2018-04-26T01:41:10.522Z,9.19
2018-04-26T01:42:10.495Z,9.31
2018-04-26T01:43:10.218Z,9.34
2018-04-26T01:44:10.188Z,9.29
2018-04-26T01:45:10.415Z,9.39
2018-04-26T01:46:10.393Z,9.32
2018-04-26T01:47:10.363Z,9.36
2018-04-26T01:48:10.085Z,9.36
2018-04-26T01:49:10.059Z,9.31
2018-04-26T01:50:10.285Z,9.32
2018-04-26T01:51:10.257Z,9.31
2018-04-26T01:52:10.228Z,9.36
2018-04-26T01:53:10.201Z,9.36
2018-04-26T01:54:10.178Z,9.36
2018-04-26T01:55:09.918Z,9.26
2018-04-26T01:56:10.124Z,9.28
2018-04-26T01:57:10.105Z,9.28
2018-04-26T01:58:10.075Z,9.26
2018-04-26T01:59:10.047Z,9.19
2018-04-26T02:00:09.838Z,9.23
2018-04-26T02:01:10.004Z,9.23
2018-04-26T02:02:09.967Z,9.16
2018-04-26T02:03:09.942Z,9.26
2018-04-26T02:04:09.919Z,9.18
2018-04-26T02:05:09.891Z,9.21
2018-04-26T02:06:09.874Z,9.22
2018-04-26T02:07:09.849Z,9.22
2018-04-26T02:08:09.815Z,9.25
2018-04-26T02:09:09.790Z,9.29
2018-04-26T02:10:09.761Z,9.22
2018-04-26T02:11:09.748Z,9.28
2018-04-26T02:12:09.716Z,9.22
2018-04-26T02:13:09.685Z,9.18
2018-04-26T02:14:09.409Z,9.22
2018-04-26T02:15:09.633Z,9.26
2018-04-26T02:16:09.355Z,9.22
2018-04-26T02:17:09.589Z,9.16
2018-04-26T02:18:09.306Z,9.28
2018-04-26T02:19:09.533Z,9.16
2018-04-26T02:20:09.504Z,9.26
2018-04-26T02:21:08.984Z,9.31
2018-04-26T02:22:08.951Z,9.16
2018-04-26T02:23:09.437Z,9.34
2018-04-26T02:24:09.398Z,9.31
2018-04-26T02:25:09.126Z,9.31
2018-04-26T02:26:09.104Z,9.21
2018-04-26T02:27:09.324Z,9.26
2018-04-26T02:28:09.300Z,9.28
2018-04-26T02:29:09.267Z,9.32
2018-04-26T02:30:09.248Z,9.26
2018-04-26T02:31:08.724Z,9.32
2018-04-26T02:32:09.198Z,9.28
2018-04-26T02:33:09.169Z,9.37
2018-04-26T02:34:09.152Z,9.34
2018-04-26T02:35:09.125Z,9.37
2018-04-26T02:36:08.843Z,9.37
2018-04-26T02:37:08.816Z,9.36
2018-04-26T02:38:08.543Z,9.34
2018-04-26T02:39:09.007Z,9.28
2018-04-26T02:40:08.982Z,9.4
2018-04-26T02:41:08.958Z,9.36
2018-04-26T02:42:08.934Z,9.4
2018-04-26T02:43:08.906Z,9.4
2018-04-26T02:44:08.632Z,9.47
2018-04-26T02:45:08.610Z,9.41
2018-04-26T02:46:08.829Z,9.48
2018-04-26T02:47:08.806Z,9.48
2018-04-26T02:48:08.777Z,9.5
2018-04-26T02:49:08.755Z,9.5
2018-04-26T02:50:08.726Z,9.44
2018-04-26T02:51:08.721Z,9.46
2018-04-26T02:52:08.688Z,9.5
2018-04-26T02:53:08.402Z,9.48
2018-04-26T02:54:08.129Z,9.4
2018-04-26T02:55:08.349Z,9.47
2018-04-26T02:56:08.600Z,9.48
2018-04-26T02:57:08.550Z,9.48
2018-04-26T02:58:08.279Z,9.44
2018-04-26T02:59:08.495Z,9.4
2018-04-26T03:00:08.474Z,9.44
2018-04-26T03:01:08.446Z,9.32
2018-04-26T03:02:08.173Z,9.36
2018-04-26T03:03:08.153Z,9.34
2018-04-26T03:04:07.870Z,9.34
2018-04-26T03:05:08.095Z,9.39
2018-04-26T03:06:08.078Z,9.36
2018-04-26T03:07:08.041Z,9.29
2018-04-26T03:08:08.029Z,9.37
2018-04-26T03:09:07.992Z,9.37
2018-04-26T03:10:07.714Z,9.34
2018-04-26T03:11:08.195Z,9.32
2018-04-26T03:12:08.165Z,9.39
2018-04-26T03:13:08.136Z,9.31
2018-04-26T03:14:08.110Z,9.36
2018-04-26T03:15:07.834Z,9.34
2018-04-26T03:16:08.061Z,9.37
2018-04-26T03:17:07.788Z,9.32
2018-04-26T03:18:07.511Z,9.23
2018-04-26T03:19:07.980Z,9.21
2018-04-26T03:20:07.707Z,9.23
2018-04-26T03:21:07.937Z,9.19
2018-04-26T03:22:07.659Z,9.26
2018-04-26T03:23:07.381Z,9.26
2018-04-26T03:24:07.945Z,9.23
2018-04-26T03:25:07.728Z,9.26
2018-04-26T03:26:07.806Z,9.18
2018-04-26T03:27:07.774Z,9.22
2018-04-26T03:28:07.499Z,9.18
2018-04-26T03:29:07.720Z,9.18
2018-04-26T03:30:07.699Z,9.21
2018-04-26T03:31:07.604Z,9.19
2018-04-26T03:32:07.642Z,9.23
2018-04-26T03:33:07.627Z,9.18
2018-04-26T03:34:07.592Z,9.25
2018-04-26T03:35:07.317Z,9.26
2018-04-26T03:36:07.538Z,9.19
2018-04-26T03:37:07.525Z,9.18
2018-04-26T03:38:06.986Z,9.19
2018-04-26T03:39:07.216Z,9.23
2018-04-26T03:40:06.938Z,9.21
2018-04-26T03:41:07.421Z,9.25
2018-04-26T03:42:07.380Z,9.25
2018-04-26T03:43:07.361Z,9.23
2018-04-26T03:44:07.082Z,9.16
2018-04-26T03:45:07.051Z,9.22
2018-04-26T03:46:07.026Z,9.25
2018-04-26T03:47:07.254Z,9.21
2018-04-26T03:48:06.983Z,9.18
2018-04-26T03:49:06.701Z,9.11
2018-04-26T03:50:07.180Z,9.1
2018-04-26T03:51:07.147Z,9
2018-04-26T03:52:06.875Z,8.95
2018-04-26T03:53:06.848Z,8.92
2018-04-26T03:54:06.819Z,8.84
2018-04-26T03:55:06.795Z,8.85
2018-04-26T03:56:07.016Z,8.76
2018-04-26T03:57:06.745Z,8.74
2018-04-26T03:58:06.963Z,8.84
2018-04-26T03:59:06.691Z,8.76
2018-04-26T04:00:06.425Z,8.79
2018-04-26T04:01:06.638Z,8.67
2018-04-26T04:02:06.862Z,8.66
2018-04-26T04:03:06.845Z,8.73
2018-04-26T04:04:06.558Z,8.69
2018-04-26T04:05:06.784Z,8.74
2018-04-26T04:06:06.504Z,8.73
2018-04-26T04:07:06.727Z,8.76
2018-04-26T04:08:06.701Z,8.71
2018-04-26T04:09:06.678Z,8.78
2018-04-26T04:10:06.408Z,8.76
2018-04-26T04:11:06.374Z,8.76
2018-04-26T04:12:06.350Z,8.76
2018-04-26T04:13:06.573Z,8.73
2018-04-26T04:14:06.291Z,8.82
2018-04-26T04:15:06.517Z,8.76
2018-04-26T04:16:06.491Z,8.81
2018-04-26T04:17:06.467Z,8.82
2018-04-26T04:18:06.195Z,8.84
2018-04-26T04:19:06.416Z,8.82
2018-04-26T04:20:06.139Z,8.84
2018-04-26T04:21:06.114Z,8.82
2018-04-26T04:22:06.090Z,8.92
2018-04-26T04:23:06.320Z,8.92
2018-04-26T04:24:06.033Z,8.89
2018-04-26T04:25:06.007Z,8.92
2018-04-26T04:26:06.241Z,8.91
2018-04-26T04:27:06.225Z,8.88
2018-04-26T04:28:06.436Z,8.88
2018-04-26T04:29:05.654Z,8.88
2018-04-26T04:30:06.126Z,8.97
2018-04-26T04:31:05.852Z,8.92
2018-04-26T04:32:06.077Z,8.87
2018-04-26T04:33:06.047Z,9
2018-04-26T04:34:06.025Z,8.91
2018-04-26T04:35:06.006Z,8.94
2018-04-26T04:36:05.722Z,9.04
2018-04-26T04:37:06.033Z,9.03
2018-04-26T04:38:05.674Z,8.99
2018-04-26T04:39:05.894Z,8.89
2018-04-26T04:40:05.624Z,8.88
2018-04-26T04:41:05.593Z,8.99
2018-04-26T04:42:05.570Z,8.89
2018-04-26T04:43:05.541Z,9.02
2018-04-26T04:44:05.769Z,9.04
2018-04-26T04:45:05.513Z,8.97
2018-04-26T04:46:05.465Z,8.89
2018-04-26T04:47:05.435Z,8.91
2018-04-26T04:48:05.411Z,8.91
2018-04-26T04:49:05.388Z,9.03
2018-04-26T04:50:05.609Z,8.97
2018-04-26T04:51:05.580Z,8.88
2018-04-26T04:52:05.556Z,8.89
2018-04-26T04:53:05.618Z,9.02
2018-04-26T04:54:05.512Z,8.95
2018-04-26T04:55:06.101Z,8.99
2018-04-26T04:56:05.807Z,9.02
2018-04-26T04:57:05.864Z,9.04
2018-04-26T04:58:05.459Z,8.95
2018-04-26T04:59:05.379Z,8.97
2018-04-26T05:00:05.104Z,9.08
2018-04-26T05:01:05.324Z,9.11
2018-04-26T05:02:05.104Z,9.16
2018-04-26T05:03:05.023Z,9.16
2018-04-26T05:04:05.246Z,9.13
2018-04-26T05:05:04.969Z,9.19
2018-04-26T05:06:04.946Z,9.21
2018-04-26T05:07:04.667Z,9.28
2018-04-26T05:08:05.140Z,9.21
2018-04-26T05:09:05.115Z,9.34
2018-04-26T05:10:04.841Z,9.34
2018-04-26T05:11:04.811Z,9.39
2018-04-26T05:12:05.049Z,9.32
2018-04-26T05:13:04.763Z,9.39
2018-04-26T05:14:04.994Z,9.39
2018-04-26T05:15:05.179Z,9.26
2018-04-26T05:16:05.172Z,9.23
2018-04-26T05:17:05.539Z,9.22
2018-04-26T05:18:05.490Z,9.14
2018-04-26T05:19:04.858Z,9.21
2018-04-26T05:20:04.842Z,9.19
2018-04-26T05:21:04.809Z,9.08
2018-04-26T05:22:04.541Z,9.03
2018-04-26T05:23:04.759Z,8.95
2018-04-26T05:24:04.490Z,8.92
2018-04-26T05:25:04.455Z,8.78
2018-04-26T05:26:04.678Z,8.81
2018-04-26T05:27:04.440Z,8.7
2018-04-26T05:28:04.377Z,8.63
2018-04-26T05:29:04.602Z,8.6
2018-04-26T05:30:04.448Z,8.63
2018-04-26T05:31:04.584Z,8.63
2018-04-26T05:32:04.285Z,8.56
2018-04-26T05:33:04.495Z,8.42
2018-04-26T05:34:04.476Z,8.45
2018-04-26T05:35:04.446Z,8.44
2018-04-26T05:36:04.427Z,8.31
2018-04-26T05:37:04.142Z,8.24
2018-04-26T05:38:04.125Z,8.2
2018-04-26T05:39:04.339Z,8.03
2018-04-26T05:40:04.422Z,8
2018-04-26T05:41:04.294Z,7.91
2018-04-26T05:42:04.025Z,7.85
2018-04-26T05:43:04.239Z,7.76
2018-04-26T05:44:03.711Z,7.67
2018-04-26T05:45:04.032Z,7.67
2018-04-26T05:46:03.900Z,7.67
2018-04-26T05:47:04.754Z,7.66
2018-04-26T05:48:03.881Z,7.45
2018-04-26T05:49:03.832Z,7.45
2018-04-26T05:50:03.797Z,7.56
2018-04-26T05:51:03.770Z,7.45
2018-04-26T05:52:04.010Z,7.54
2018-04-26T05:53:04.025Z,7.54
2018-04-26T05:54:03.691Z,7.5
2018-04-26T05:55:03.663Z,7.63
2018-04-26T05:56:03.761Z,7.61
2018-04-26T05:57:03.611Z,7.61
2018-04-26T05:58:03.582Z,7.63
2018-04-26T05:59:03.810Z,7.75
2018-04-26T06:00:03.784Z,7.76
2018-04-26T06:01:03.507Z,7.79
2018-04-26T06:02:03.731Z,7.8
2018-04-26T06:03:03.452Z,7.75
2018-04-26T06:04:03.426Z,7.66
2018-04-26T06:05:03.564Z,7.66
2018-04-26T06:06:03.370Z,7.6
2018-04-26T06:07:03.591Z,7.5
2018-04-26T06:08:03.321Z,7.48
2018-04-26T06:09:03.821Z,7.43
2018-04-26T06:10:03.513Z,7.5
2018-04-26T06:11:03.485Z,7.5
2018-04-26T06:12:03.481Z,7.47
2018-04-26T06:13:03.427Z,7.45
2018-04-26T06:14:03.402Z,7.45
2018-04-26T06:15:03.377Z,7.48
2018-04-26T06:16:03.427Z,7.43
2018-04-26T06:17:04.034Z,7.45
2018-04-26T06:18:03.298Z,7.53
2018-04-26T06:19:04.020Z,7.47
2018-04-26T06:20:03.238Z,7.5
2018-04-26T06:21:03.218Z,7.53
2018-04-26T06:22:03.193Z,7.51
2018-04-26T06:23:03.160Z,7.61
2018-04-26T06:24:03.139Z,7.58
2018-04-26T06:25:03.227Z,7.69
2018-04-26T06:26:03.094Z,7.79
2018-04-26T06:27:02.802Z,7.85
2018-04-26T06:28:03.027Z,7.95
2018-04-26T06:29:02.752Z,7.98
2018-04-26T06:30:02.977Z,7.97
2018-04-26T06:31:03.070Z,7.97
2018-04-26T06:32:02.931Z,8.06
2018-04-26T06:33:02.693Z,8.12
2018-04-26T06:34:02.865Z,8.16
2018-04-26T06:35:02.598Z,8.06
2018-04-26T06:36:02.570Z,8.16
2018-04-26T06:37:02.825Z,8.19
2018-04-26T06:38:02.764Z,8.18
2018-04-26T06:39:02.744Z,8.23
2018-04-26T06:40:02.721Z,8.19
2018-04-26T06:41:02.695Z,8.26
2018-04-26T06:42:02.757Z,8.27
2018-04-26T06:43:02.631Z,8.2
2018-04-26T06:44:02.618Z,8.24
2018-04-26T06:45:02.581Z,8.15
2018-04-26T06:46:02.567Z,8.26
2018-04-26T06:47:02.282Z,8.3
2018-04-26T06:48:02.501Z,8.34
2018-04-26T06:49:02.478Z,8.31
2018-04-26T06:50:02.207Z,8.42
2018-04-26T06:51:02.433Z,8.48
2018-04-26T06:52:02.402Z,8.46
2018-04-26T06:53:02.378Z,8.53
2018-04-26T06:54:02.098Z,8.46
2018-04-26T06:55:02.081Z,8.49
2018-04-26T06:56:02.307Z,8.52
2018-04-26T06:57:02.025Z,8.52
2018-04-26T06:58:02.268Z,8.53
2018-04-26T06:59:02.223Z,8.56
2018-04-26T07:00:01.949Z,8.63
2018-04-26T07:01:01.936Z,8.7
2018-04-26T07:02:03.504Z,8.69
2018-04-26T07:03:03.383Z,8.7
2018-04-26T07:04:02.213Z,8.74
2018-04-26T07:05:02.089Z,8.82
2018-04-26T07:06:01.799Z,8.87
2018-04-26T07:07:01.839Z,8.79
2018-04-26T07:08:02.002Z,8.82
2018-04-26T07:09:01.989Z,8.87
2018-04-26T07:10:01.699Z,8.97
2018-04-26T07:11:01.679Z,9.02
2018-04-26T07:12:01.786Z,9.11
2018-04-26T07:13:01.877Z,9.16
2018-04-26T07:14:01.854Z,9.22
2018-04-26T07:15:01.572Z,9.19
2018-04-26T07:16:01.801Z,9.22
2018-04-26T07:17:01.781Z,9.18
2018-04-26T07:18:01.503Z,9.22
2018-04-26T07:19:01.736Z,9.25
2018-04-26T07:20:01.710Z,9.21
2018-04-26T07:21:01.672Z,9.39
2018-04-26T07:22:01.404Z,9.41
2018-04-26T07:23:01.628Z,9.48
2018-04-26T07:24:01.608Z,9.46
2018-04-26T07:25:01.591Z,9.56
2018-04-26T07:26:01.559Z,9.68
2018-04-26T07:27:01.290Z,9.76
2018-04-26T07:28:01.617Z,9.8
2018-04-26T07:29:01.491Z,9.8
2018-04-26T07:30:01.471Z,9.8
2018-04-26T07:31:01.447Z,9.77
2018-04-26T07:32:01.426Z,9.74
2018-04-26T07:33:01.400Z,9.73
2018-04-26T07:34:01.129Z,9.68
2018-04-26T07:35:01.729Z,9.61
2018-04-26T07:36:01.329Z,9.62
2018-04-26T07:37:01.302Z,9.61
2018-04-26T07:38:01.279Z,9.58
2018-04-26T07:39:01.006Z,9.69
2018-04-26T07:40:00.982Z,9.82
2018-04-26T07:41:01.767Z,9.86
2018-04-26T07:42:01.189Z,9.99
2018-04-26T07:43:01.092Z,10.02
2018-04-26T07:44:01.071Z,10.1
2018-04-26T07:45:00.871Z,10.19
2018-04-26T07:46:01.095Z,10.2
2018-04-26T07:47:01.083Z,10.46
2018-04-26T07:48:00.803Z,10.44
2018-04-26T07:49:00.779Z,10.46
2018-04-26T07:50:00.765Z,10.34
2018-04-26T07:51:00.979Z,10.19
2018-04-26T07:52:00.612Z,10.05
2018-04-26T07:53:00.938Z,10.04
2018-04-26T07:54:00.916Z,9.89
2018-04-26T07:55:00.897Z,9.92
2018-04-26T07:56:00.618Z,9.98
2018-04-26T07:57:00.606Z,9.99
2018-04-26T07:58:00.837Z,10.04
2018-04-26T07:59:01.035Z,10.07
2018-04-26T08:00:00.533Z,10.12
2018-04-26T08:01:00.773Z,10.15
2018-04-26T08:02:00.486Z,10.16
2018-04-26T08:03:00.713Z,10.16
2018-04-26T08:04:00.692Z,10.17
2018-04-26T08:05:00.669Z,10.02
2018-04-26T08:06:00.649Z,10.13
2018-04-26T08:07:00.618Z,10.12
2018-04-26T08:08:00.348Z,10.13
2018-04-26T08:09:00.575Z,10.07
2018-04-26T08:10:00.557Z,10.1
2018-04-26T08:11:00.540Z,10.15
2018-04-26T08:12:00.507Z,10.05
2018-04-26T08:13:00.491Z,10.12
2018-04-26T08:14:00.527Z,10.19
2018-04-26T08:15:00.435Z,10.33
2018-04-26T08:16:00.171Z,10.23
2018-04-26T08:17:00.145Z,10.3
2018-04-26T08:18:00.373Z,10.33
2018-04-26T08:19:00.094Z,10.33
2018-04-26T08:20:00.329Z,10.34
2018-04-26T08:21:00.052Z,10.41
2018-04-26T08:22:00.034Z,10.69
2018-04-26T08:23:00.258Z,10.76
2018-04-26T08:24:00.238Z,10.9
2018-04-26T08:25:00.443Z,11.12
2018-04-26T08:26:00.192Z,11.33
2018-04-26T08:27:00.167Z,11.4
2018-04-26T08:28:00.156Z,11.4
2018-04-26T08:28:59.884Z,11.5
2018-04-26T08:30:00.110Z,11.44
2018-04-26T08:30:59.836Z,11.48
2018-04-26T08:31:59.819Z,11.43
2018-04-26T08:33:00.049Z,11.5
2018-04-26T08:33:59.525Z,11.52
2018-04-26T08:35:00.010Z,11.52
2018-04-26T08:35:59.985Z,11.52
2018-04-26T08:37:00.178Z,11.51
2018-04-26T08:38:00.680Z,11.45
2018-04-26T08:38:59.926Z,11.48
2018-04-26T08:40:00.066Z,11.5
2018-04-26T08:40:59.883Z,11.43
2018-04-26T08:41:59.612Z,11.33
2018-04-26T08:42:59.590Z,11.3
2018-04-26T08:43:59.574Z,11.27
2018-04-26T08:44:59.550Z,11.36
2018-04-26T08:46:00.519Z,11.47
2018-04-26T08:46:59.505Z,11.65
2018-04-26T08:48:01.234Z,11.59
2018-04-26T08:48:59.722Z,11.55
2018-04-26T08:49:59.696Z,11.51
2018-04-26T08:51:00.207Z,11.57
2018-04-26T08:51:59.652Z,11.4
2018-04-26T08:52:59.379Z,11.51
2018-04-26T08:53:59.608Z,11.44
2018-04-26T08:54:59.588Z,11.43
2018-04-26T08:55:59.314Z,11.36
2018-04-26T08:56:59.306Z,11.19
2018-04-26T08:57:59.275Z,11.17
2018-04-26T08:58:59.510Z,11.1
2018-04-26T08:59:59.233Z,10.94
2018-04-26T09:00:59.212Z,10.89
2018-04-26T09:01:59.432Z,10.75
2018-04-26T09:02:59.164Z,10.78
2018-04-26T09:03:59.385Z,10.67
2018-04-26T09:04:59.366Z,10.69
2018-04-26T09:05:59.344Z,10.81
2018-04-26T09:06:59.157Z,11.05
2018-04-26T09:07:59.049Z,11.11
2018-04-26T09:08:59.284Z,11.1
2018-04-26T09:09:59.251Z,11.32
2018-04-26T09:10:59.238Z,11.48
2018-04-26T09:11:59.213Z,11.43
2018-04-26T09:12:59.194Z,11.5
2018-04-26T09:13:59.162Z,11.68
2018-04-26T09:14:59.145Z,11.68
2018-04-26T09:15:59.458Z,11.73
2018-04-26T09:16:59.196Z,11.8
2018-04-26T09:17:59.080Z,11.94
2018-04-26T09:18:58.809Z,12.07
2018-04-26T09:19:58.789Z,12.18
2018-04-26T09:20:59.027Z,12.25
2018-04-26T09:21:58.881Z,12.22
2018-04-26T09:22:58.977Z,12.25
2018-04-26T09:23:58.964Z,12.35
2018-04-26T09:24:58.940Z,12.36
2018-04-26T09:25:58.669Z,12.54
2018-04-26T09:26:58.943Z,12.54
2018-04-26T09:27:58.632Z,12.53
2018-04-26T09:28:58.868Z,12.46
2018-04-26T09:29:58.957Z,12.54
2018-04-26T09:30:58.574Z,12.49
2018-04-26T09:31:58.804Z,12.53
2018-04-26T09:32:58.547Z,12.43
2018-04-26T09:33:58.762Z,12.47
2018-04-26T09:34:58.740Z,12.46
2018-04-26T09:35:58.724Z,12.62
2018-04-26T09:36:58.703Z,12.73
2018-04-26T09:37:58.696Z,12.76
2018-04-26T09:38:58.679Z,12.8
2018-04-26T09:39:58.677Z,12.87
2018-04-26T09:40:58.708Z,12.94
2018-04-26T09:41:58.608Z,13.19
2018-04-26T09:42:58.590Z,13.3
2018-04-26T09:43:58.568Z,13.5
2018-04-26T09:44:58.861Z,13.46
2018-04-26T09:45:58.289Z,13.52
2018-04-26T09:46:58.529Z,13.41
2018-04-26T09:47:58.501Z,13.33
2018-04-26T09:48:58.642Z,13.15
2018-04-26T09:49:58.458Z,13.16
2018-04-26T09:50:59.091Z,13.11
2018-04-26T09:51:58.176Z,12.91
2018-04-26T09:53:00.398Z,12.8
2018-04-26T09:53:58.909Z,12.85
2018-04-26T09:54:58.397Z,12.86
2018-04-26T09:55:59.266Z,12.83
2018-04-26T09:56:58.328Z,12.82
2018-04-26T09:57:58.573Z,12.8
2018-04-26T09:58:58.044Z,12.8
2018-04-26T09:59:58.031Z,12.67
2018-04-26T10:00:58.254Z,12.49
2018-04-26T10:01:58.241Z,12.54
2018-04-26T10:02:58.205Z,12.46
2018-04-26T10:03:58.191Z,12.21
2018-04-26T10:04:58.165Z,11.99
2018-04-26T10:05:58.148Z,11.65
2018-04-26T10:06:58.136Z,11.41
2018-04-26T10:07:58.110Z,11.15
2018-04-26T10:08:58.182Z,10.93
2018-04-26T10:09:58.078Z,10.78
2018-04-26T10:10:58.039Z,10.75
2018-04-26T10:11:58.022Z,10.72
2018-04-26T10:12:59.343Z,10.84
2018-04-26T10:13:58.152Z,11.11
2018-04-26T10:14:57.892Z,11.3
2018-04-26T10:15:57.942Z,11.44
2018-04-26T10:16:57.862Z,11.63
2018-04-26T10:17:57.648Z,11.77
2018-04-26T10:18:58.061Z,11.86
2018-04-26T10:19:57.369Z,11.86
2018-04-26T10:20:57.892Z,11.75
2018-04-26T10:21:58.092Z,11.78
2018-04-26T10:22:57.783Z,11.68
2018-04-26T10:23:57.512Z,11.54
2018-04-26T10:24:58.039Z,11.43
2018-04-26T10:25:57.468Z,11.32
2018-04-26T10:26:57.701Z,11.23
2018-04-26T10:27:57.447Z,11.15
2018-04-26T10:28:57.668Z,11.1
2018-04-26T10:29:57.487Z,10.96
2018-04-26T10:30:57.606Z,10.9
2018-04-26T10:31:57.339Z,10.78
2018-04-26T10:32:57.563Z,10.76
2018-04-26T10:33:57.293Z,10.81
2018-04-26T10:34:57.518Z,10.81
2018-04-26T10:35:57.495Z,10.89
2018-04-26T10:36:57.478Z,10.92
2018-04-26T10:37:57.359Z,11.04
2018-04-26T10:38:57.513Z,10.94
2018-04-26T10:39:57.408Z,11.07
2018-04-26T10:40:57.390Z,11.1
2018-04-26T10:41:57.366Z,11.1
2018-04-26T10:42:57.349Z,11.12
2018-04-26T10:43:57.320Z,11.14
2018-04-26T10:44:57.303Z,11.15
2018-04-26T10:45:57.268Z,11.14
2018-04-26T10:46:57.255Z,11.11
2018-04-26T10:47:57.237Z,11.11
2018-04-26T10:48:56.974Z,11.23
2018-04-26T10:49:57.190Z,11.37
2018-04-26T10:50:56.920Z,11.47
2018-04-26T10:51:57.143Z,11.55
2018-04-26T10:52:57.289Z,11.59
2018-04-26T10:53:57.105Z,11.62
2018-04-26T10:54:57.088Z,11.6
2018-04-26T10:55:57.053Z,11.57
2018-04-26T10:56:57.042Z,11.55
2018-04-26T10:57:56.767Z,11.66
2018-04-26T10:58:56.996Z,11.68
2018-04-26T10:59:56.733Z,11.7
2018-04-26T11:00:56.953Z,11.66
2018-04-26T11:01:56.938Z,11.73
2018-04-26T11:02:56.919Z,11.72
2018-04-26T11:03:56.393Z,11.83
2018-04-26T11:04:56.870Z,11.9
2018-04-26T11:05:56.852Z,12.02
2018-04-26T11:06:56.826Z,12.15
2018-04-26T11:07:56.808Z,12.17
2018-04-26T11:08:56.786Z,12.25
2018-04-26T11:09:56.515Z,12.35
2018-04-26T11:10:56.750Z,12.31
2018-04-26T11:11:56.720Z,12.36
2018-04-26T11:12:57.073Z,12.36
2018-04-26T11:13:56.812Z,12.37
2018-04-26T11:14:56.662Z,12.27
2018-04-26T11:15:56.634Z,12.21
2018-04-26T11:16:56.616Z,12.1
2018-04-26T11:17:56.596Z,12.15
2018-04-26T11:18:56.575Z,12.15
2018-04-26T11:19:56.551Z,12.25
2018-04-26T11:20:56.538Z,12.27
2018-04-26T11:21:56.545Z,12.42
2018-04-26T11:22:56.495Z,12.58
2018-04-26T11:23:56.465Z,12.55
2018-04-26T11:24:56.444Z,12.8
2018-04-26T11:25:56.428Z,13.05
2018-04-26T11:26:56.404Z,13.27
2018-04-26T11:27:56.378Z,13.31
2018-04-26T11:28:56.363Z,13.33
2018-04-26T11:29:56.354Z,13.49
2018-04-26T11:30:56.243Z,13.54
2018-04-26T11:31:56.300Z,13.5
2018-04-26T11:32:56.032Z,13.49
2018-04-26T11:33:56.260Z,13.49
2018-04-26T11:34:56.759Z,13.41
2018-04-26T11:35:55.977Z,13.28
2018-04-26T11:36:56.200Z,13.27
2018-04-26T11:37:56.183Z,13.35
2018-04-26T11:38:56.167Z,13.41
2018-04-26T11:39:56.140Z,13.52
2018-04-26T11:40:56.119Z,13.6
2018-04-26T11:41:56.099Z,13.62
2018-04-26T11:42:55.951Z,13.63
2018-04-26T11:43:55.811Z,13.6
2018-04-26T11:44:56.047Z,13.54
2018-04-26T11:45:56.016Z,13.63
2018-04-26T11:46:56.009Z,13.7
2018-04-26T11:47:55.988Z,13.75
2018-04-26T11:48:56.022Z,13.78
2018-04-26T11:49:55.947Z,13.77
2018-04-26T11:50:55.916Z,13.93
2018-04-26T11:51:55.652Z,13.97
2018-04-26T11:52:55.878Z,14.03
2018-04-26T11:53:55.607Z,14.1
2018-04-26T11:54:55.593Z,14.17
2018-04-26T11:55:55.619Z,14.22
2018-04-26T11:56:55.301Z,14.28
2018-04-26T11:57:55.532Z,14.36
2018-04-26T11:58:55.261Z,14.32
2018-04-26T11:59:55.489Z,14.26
2018-04-26T12:00:55.721Z,14.28
2018-04-26T12:01:55.699Z,14.18
2018-04-26T12:02:55.511Z,14.12
2018-04-26T12:03:55.751Z,14.08
2018-04-26T12:04:55.640Z,14.15
2018-04-26T12:05:55.375Z,14.05
2018-04-26T12:06:55.355Z,14.1
2018-04-26T12:07:55.597Z,13.99
2018-04-26T12:08:55.569Z,13.93
2018-04-26T12:09:55.307Z,13.77
2018-04-26T12:10:55.280Z,13.75
2018-04-26T12:11:55.528Z,13.71
2018-04-26T12:12:55.486Z,13.57
2018-04-26T12:13:55.473Z,13.57
2018-04-26T12:14:55.460Z,13.56
2018-04-26T12:15:55.443Z,13.68
2018-04-26T12:16:55.407Z,13.59
2018-04-26T12:17:55.143Z,13.57
2018-04-26T12:18:55.368Z,13.72
2018-04-26T12:19:55.348Z,13.75
2018-04-26T12:20:55.343Z,13.75
2018-04-26T12:21:55.313Z,13.78
2018-04-26T12:22:55.292Z,13.77
2018-04-26T12:23:55.099Z,13.86
2018-04-26T12:24:54.758Z,13.99
2018-04-26T12:25:55.226Z,14.1
2018-04-26T12:26:55.287Z,14.11
2018-04-26T12:27:55.206Z,14.26
2018-04-26T12:28:55.171Z,14.35
2018-04-26T12:29:55.168Z,14.33
2018-04-26T12:30:55.133Z,14.36
2018-04-26T12:31:55.115Z,14.5
2018-04-26T12:32:55.089Z,14.69
2018-04-26T12:33:54.825Z,14.78
2018-04-26T12:34:55.052Z,14.86
2018-04-26T12:35:54.790Z,14.91
2018-04-26T12:36:54.768Z,14.99
2018-04-26T12:37:54.747Z,15
2018-04-26T12:38:54.731Z,14.97
2018-04-26T12:39:55.052Z,14.89
2018-04-26T12:40:54.999Z,14.72
2018-04-26T12:41:54.921Z,14.6
2018-04-26T12:42:54.916Z,14.59
2018-04-26T12:43:54.883Z,14.53
2018-04-26T12:44:54.855Z,14.58
2018-04-26T12:45:54.591Z,14.41
2018-04-26T12:46:54.834Z,14.36
2018-04-26T12:47:54.804Z,14.18
2018-04-26T12:48:54.781Z,14.1
2018-04-26T12:49:54.769Z,13.95
2018-04-26T12:50:54.744Z,14
2018-04-26T12:51:54.724Z,13.89
2018-04-26T12:52:54.459Z,13.9
2018-04-26T12:53:54.760Z,13.81
2018-04-26T12:54:54.664Z,13.78
2018-04-26T12:55:54.395Z,13.77
2018-04-26T12:56:54.624Z,13.57
2018-04-26T12:57:54.356Z,13.47
2018-04-26T12:58:54.331Z,13.33
2018-04-26T12:59:54.569Z,13.16
2018-04-26T13:00:54.537Z,13.11
2018-04-26T13:01:54.518Z,13.05
2018-04-26T13:02:54.276Z,13.04
2018-04-26T13:03:54.486Z,13.01
2018-04-26T13:04:54.380Z,13.18
2018-04-26T13:05:54.437Z,13.3
2018-04-26T13:06:54.172Z,13.46
2018-04-26T13:07:54.242Z,13.6
2018-04-26T13:08:54.371Z,13.89
2018-04-26T13:09:54.106Z,14.1
2018-04-26T13:10:54.096Z,14.47